sensor_id;sensor_type;location;lat;lon;timestamp;P1;durP1;ratioP1;P2;durP2;ratioP2
36377;SDS011;22402;42.746;23.606;2023-05-02T00:00:49;3.53;;;2.50;;
36377;SDS011;22402;42.746;23.606;2023-05-02T00:03:14;3.60;;;2.97;;
36377;SDS011;22402;42.746;23.606;2023-05-02T00:05:41;2.40;;;2.20;;
36377;SDS011;22402;42.746;23.606;2023-05-02T00:08:06;3.83;;;2.43;;
36377;SDS011;22402;42.746;23.606;2023-05-02T00:10:32;2.80;;;2.43;;
36377;SDS011;22402;42.746;23.606;2023-05-02T00:12:58;2.60;;;2.40;;
36377;SDS011;22402;42.746;23.606;2023-05-02T00:15:23;2.87;;;2.60;;
36377;SDS011;22402;42.746;23.606;2023-05-02T00:17:51;4.20;;;2.80;;
36377;SDS011;22402;42.746;23.606;2023-05-02T00:20:17;5.40;;;2.60;;
36377;SDS011;22402;42.746;23.606;2023-05-02T00:22:42;2.50;;;2.30;;
36377;SDS011;22402;42.746;23.606;2023-05-02T00:25:08;4.27;;;2.43;;
36377;SDS011;22402;42.746;23.606;2023-05-02T00:27:33;2.67;;;2.33;;
36377;SDS011;22402;42.746;23.606;2023-05-02T00:29:59;2.13;;;1.93;;
36377;SDS011;22402;42.746;23.606;2023-05-02T00:32:25;2.50;;;2.10;;
36377;SDS011;22402;42.746;23.606;2023-05-02T00:34:51;2.77;;;2.57;;
36377;SDS011;22402;42.746;23.606;2023-05-02T00:37:16;2.07;;;1.70;;
36377;SDS011;22402;42.746;23.606;2023-05-02T00:39:42;2.43;;;2.23;;
36377;SDS011;22402;42.746;23.606;2023-05-02T00:42:07;2.60;;;2.33;;
36377;SDS011;22402;42.746;23.606;2023-05-02T00:44:32;3.00;;;2.70;;
36377;SDS011;22402;42.746;23.606;2023-05-02T00:46:59;3.10;;;2.90;;
36377;SDS011;22402;42.746;23.606;2023-05-02T00:49:25;2.70;;;2.50;;
36377;SDS011;22402;42.746;23.606;2023-05-02T00:51:52;3.60;;;3.07;;
36377;SDS011;22402;42.746;23.606;2023-05-02T00:54:17;3.20;;;2.50;;
36377;SDS011;22402;42.746;23.606;2023-05-02T00:56:43;3.53;;;2.80;;
36377;SDS011;22402;42.746;23.606;2023-05-02T00:59:08;3.03;;;2.63;;
36377;SDS011;22402;42.746;23.606;2023-05-02T01:01:38;2.40;;;2.10;;
36377;SDS011;22402;42.746;23.606;2023-05-02T01:04:29;4.27;;;2.70;;
36377;SDS011;22402;42.746;23.606;2023-05-02T01:10:22;2.73;;;2.53;;
36377;SDS011;22402;42.746;23.606;2023-05-02T01:15:43;2.80;;;2.37;;
36377;SDS011;22402;42.746;23.606;2023-05-02T01:18:11;2.90;;;2.17;;
36377;SDS011;22402;42.746;23.606;2023-05-02T01:20:39;2.47;;;2.27;;
36377;SDS011;22402;42.746;23.606;2023-05-02T01:23:13;2.73;;;2.53;;
36377;SDS011;22402;42.746;23.606;2023-05-02T01:31:30;3.43;;;2.43;;
36377;SDS011;22402;42.746;23.606;2023-05-02T01:33:59;2.30;;;2.17;;
36377;SDS011;22402;42.746;23.606;2023-05-02T01:36:27;2.87;;;2.67;;
36377;SDS011;22402;42.746;23.606;2023-05-02T01:38:55;2.77;;;2.53;;
36377;SDS011;22402;42.746;23.606;2023-05-02T01:41:24;3.13;;;2.83;;
36377;SDS011;22402;42.746;23.606;2023-05-02T01:43:52;3.80;;;2.40;;
36377;SDS011;22402;42.746;23.606;2023-05-02T01:46:21;3.03;;;2.60;;
36377;SDS011;22402;42.746;23.606;2023-05-02T01:48:49;3.53;;;2.10;;
36377;SDS011;22402;42.746;23.606;2023-05-02T01:51:16;3.10;;;2.37;;
36377;SDS011;22402;42.746;23.606;2023-05-02T01:53:45;2.90;;;2.30;;
36377;SDS011;22402;42.746;23.606;2023-05-02T01:56:14;2.77;;;2.57;;
36377;SDS011;22402;42.746;23.606;2023-05-02T01:58:42;2.67;;;2.47;;
36377;SDS011;22402;42.746;23.606;2023-05-02T02:01:10;3.50;;;2.73;;
36377;SDS011;22402;42.746;23.606;2023-05-02T02:03:37;3.00;;;2.70;;
36377;SDS011;22402;42.746;23.606;2023-05-02T02:06:02;2.40;;;2.20;;
36377;SDS011;22402;42.746;23.606;2023-05-02T02:08:29;2.53;;;2.33;;
36377;SDS011;22402;42.746;23.606;2023-05-02T02:10:58;2.50;;;2.30;;
36377;SDS011;22402;42.746;23.606;2023-05-02T02:13:35;2.60;;;2.37;;
36377;SDS011;22402;42.746;23.606;2023-05-02T02:16:04;2.87;;;2.47;;
36377;SDS011;22402;42.746;23.606;2023-05-02T02:18:35;3.73;;;2.43;;
36377;SDS011;22402;42.746;23.606;2023-05-02T02:21:03;3.40;;;2.47;;
36377;SDS011;22402;42.746;23.606;2023-05-02T02:23:31;3.40;;;2.43;;
36377;SDS011;22402;42.746;23.606;2023-05-02T02:25:58;2.83;;;2.30;;
36377;SDS011;22402;42.746;23.606;2023-05-02T02:28:26;3.30;;;2.50;;
36377;SDS011;22402;42.746;23.606;2023-05-02T02:30:52;3.20;;;2.27;;
36377;SDS011;22402;42.746;23.606;2023-05-02T02:33:17;4.43;;;2.43;;
36377;SDS011;22402;42.746;23.606;2023-05-02T02:35:49;4.37;;;2.70;;
36377;SDS011;22402;42.746;23.606;2023-05-02T02:38:29;2.90;;;2.50;;
36377;SDS011;22402;42.746;23.606;2023-05-02T02:46:47;3.33;;;2.53;;
36377;SDS011;22402;42.746;23.606;2023-05-02T02:49:31;4.40;;;2.40;;
36377;SDS011;22402;42.746;23.606;2023-05-02T02:52:17;3.20;;;2.90;;
36377;SDS011;22402;42.746;23.606;2023-05-02T02:55:08;3.07;;;2.40;;
36377;SDS011;22402;42.746;23.606;2023-05-02T02:57:54;2.73;;;2.53;;
36377;SDS011;22402;42.746;23.606;2023-05-02T03:00:24;4.07;;;2.27;;
36377;SDS011;22402;42.746;23.606;2023-05-02T03:02:52;2.87;;;2.43;;
36377;SDS011;22402;42.746;23.606;2023-05-02T03:05:21;2.33;;;2.13;;
36377;SDS011;22402;42.746;23.606;2023-05-02T03:07:47;2.60;;;2.40;;
36377;SDS011;22402;42.746;23.606;2023-05-02T03:10:13;2.70;;;2.47;;
36377;SDS011;22402;42.746;23.606;2023-05-02T03:12:38;2.60;;;2.40;;
36377;SDS011;22402;42.746;23.606;2023-05-02T03:17:46;4.37;;;2.50;;
36377;SDS011;22402;42.746;23.606;2023-05-02T03:20:11;2.43;;;2.23;;
36377;SDS011;22402;42.746;23.606;2023-05-02T03:22:37;3.63;;;2.70;;
36377;SDS011;22402;42.746;23.606;2023-05-02T03:25:02;4.63;;;2.97;;
36377;SDS011;22402;42.746;23.606;2023-05-02T03:27:28;2.67;;;2.47;;
36377;SDS011;22402;42.746;23.606;2023-05-02T03:29:53;3.00;;;2.47;;
36377;SDS011;22402;42.746;23.606;2023-05-02T03:32:19;4.13;;;2.30;;
36377;SDS011;22402;42.746;23.606;2023-05-02T03:34:44;2.93;;;2.63;;
36377;SDS011;22402;42.746;23.606;2023-05-02T03:37:10;3.07;;;2.83;;
36377;SDS011;22402;42.746;23.606;2023-05-02T03:39:35;2.47;;;2.27;;
36377;SDS011;22402;42.746;23.606;2023-05-02T03:42:01;2.33;;;2.13;;
36377;SDS011;22402;42.746;23.606;2023-05-02T03:44:26;2.77;;;2.57;;
36377;SDS011;22402;42.746;23.606;2023-05-02T03:46:52;3.57;;;3.27;;
36377;SDS011;22402;42.746;23.606;2023-05-02T03:49:17;5.20;;;2.70;;
36377;SDS011;22402;42.746;23.606;2023-05-02T03:51:43;3.17;;;2.67;;
36377;SDS011;22402;42.746;23.606;2023-05-02T03:54:09;2.10;;;2.00;;
36377;SDS011;22402;42.746;23.606;2023-05-02T03:56:34;2.90;;;2.60;;
36377;SDS011;22402;42.746;23.606;2023-05-02T03:59:00;3.17;;;2.97;;
36377;SDS011;22402;42.746;23.606;2023-05-02T04:01:25;3.00;;;2.60;;
36377;SDS011;22402;42.746;23.606;2023-05-02T04:03:51;3.00;;;2.43;;
36377;SDS011;22402;42.746;23.606;2023-05-02T04:06:17;2.90;;;2.60;;
36377;SDS011;22402;42.746;23.606;2023-05-02T04:08:42;2.17;;;2.07;;
36377;SDS011;22402;42.746;23.606;2023-05-02T04:11:08;2.03;;;1.90;;
36377;SDS011;22402;42.746;23.606;2023-05-02T04:13:33;2.40;;;2.20;;
36377;SDS011;22402;42.746;23.606;2023-05-02T04:15:59;2.33;;;2.13;;
36377;SDS011;22402;42.746;23.606;2023-05-02T04:18:25;2.73;;;2.43;;
36377;SDS011;22402;42.746;23.606;2023-05-02T04:20:50;3.00;;;2.27;;
36377;SDS011;22402;42.746;23.606;2023-05-02T04:23:16;2.50;;;2.30;;
36377;SDS011;22402;42.746;23.606;2023-05-02T04:25:49;2.43;;;2.23;;
36377;SDS011;22402;42.746;23.606;2023-05-02T04:28:15;2.87;;;2.57;;
36377;SDS011;22402;42.746;23.606;2023-05-02T04:30:41;2.73;;;2.50;;
36377;SDS011;22402;42.746;23.606;2023-05-02T04:33:06;2.43;;;2.10;;
36377;SDS011;22402;42.746;23.606;2023-05-02T04:35:32;2.63;;;2.43;;
36377;SDS011;22402;42.746;23.606;2023-05-02T04:37:57;2.57;;;2.37;;
36377;SDS011;22402;42.746;23.606;2023-05-02T04:40:23;3.37;;;3.07;;
36377;SDS011;22402;42.746;23.606;2023-05-02T04:42:48;2.60;;;2.30;;
36377;SDS011;22402;42.746;23.606;2023-05-02T04:45:13;2.90;;;2.70;;
36377;SDS011;22402;42.746;23.606;2023-05-02T04:47:39;2.47;;;2.13;;
36377;SDS011;22402;42.746;23.606;2023-05-02T04:50:05;3.10;;;2.83;;
36377;SDS011;22402;42.746;23.606;2023-05-02T04:52:31;2.87;;;2.67;;
36377;SDS011;22402;42.746;23.606;2023-05-02T04:54:56;5.37;;;3.17;;
36377;SDS011;22402;42.746;23.606;2023-05-02T04:57:22;2.70;;;2.43;;
36377;SDS011;22402;42.746;23.606;2023-05-02T04:59:47;2.87;;;2.67;;
36377;SDS011;22402;42.746;23.606;2023-05-02T05:02:12;3.23;;;2.83;;
36377;SDS011;22402;42.746;23.606;2023-05-02T05:04:40;3.03;;;2.67;;
36377;SDS011;22402;42.746;23.606;2023-05-02T05:07:06;2.97;;;2.73;;
36377;SDS011;22402;42.746;23.606;2023-05-02T05:09:32;3.07;;;2.63;;
36377;SDS011;22402;42.746;23.606;2023-05-02T05:11:57;4.03;;;2.97;;
36377;SDS011;22402;42.746;23.606;2023-05-02T05:14:22;3.60;;;3.30;;
36377;SDS011;22402;42.746;23.606;2023-05-02T05:16:48;2.67;;;2.47;;
36377;SDS011;22402;42.746;23.606;2023-05-02T05:19:13;2.73;;;2.50;;
36377;SDS011;22402;42.746;23.606;2023-05-02T05:21:39;3.90;;;3.00;;
36377;SDS011;22402;42.746;23.606;2023-05-02T05:24:04;2.93;;;2.73;;
36377;SDS011;22402;42.746;23.606;2023-05-02T05:26:31;2.97;;;2.77;;
36377;SDS011;22402;42.746;23.606;2023-05-02T05:28:56;2.73;;;2.40;;
36377;SDS011;22402;42.746;23.606;2023-05-02T05:31:25;3.20;;;3.00;;
36377;SDS011;22402;42.746;23.606;2023-05-02T05:33:54;3.97;;;2.63;;
36377;SDS011;22402;42.746;23.606;2023-05-02T05:36:19;3.10;;;2.90;;
36377;SDS011;22402;42.746;23.606;2023-05-02T05:38:45;3.53;;;3.23;;
36377;SDS011;22402;42.746;23.606;2023-05-02T05:41:10;4.47;;;4.07;;
36377;SDS011;22402;42.746;23.606;2023-05-02T05:43:36;5.30;;;4.20;;
36377;SDS011;22402;42.746;23.606;2023-05-02T05:46:02;5.03;;;4.20;;
36377;SDS011;22402;42.746;23.606;2023-05-02T05:48:27;7.17;;;4.17;;
36377;SDS011;22402;42.746;23.606;2023-05-02T05:50:53;5.53;;;4.33;;
36377;SDS011;22402;42.746;23.606;2023-05-02T05:53:18;3.90;;;3.50;;
36377;SDS011;22402;42.746;23.606;2023-05-02T05:55:44;5.90;;;4.27;;
36377;SDS011;22402;42.746;23.606;2023-05-02T05:58:10;11.50;;;4.53;;
36377;SDS011;22402;42.746;23.606;2023-05-02T06:00:36;5.57;;;4.40;;
36377;SDS011;22402;42.746;23.606;2023-05-02T06:03:03;6.17;;;3.97;;
36377;SDS011;22402;42.746;23.606;2023-05-02T06:05:29;4.43;;;4.03;;
36377;SDS011;22402;42.746;23.606;2023-05-02T06:07:58;8.90;;;3.83;;
36377;SDS011;22402;42.746;23.606;2023-05-02T06:10:24;4.63;;;4.13;;
36377;SDS011;22402;42.746;23.606;2023-05-02T06:12:50;6.00;;;3.90;;
36377;SDS011;22402;42.746;23.606;2023-05-02T06:15:16;7.20;;;4.63;;
36377;SDS011;22402;42.746;23.606;2023-05-02T06:17:41;6.53;;;3.57;;
36377;SDS011;22402;42.746;23.606;2023-05-02T06:20:07;4.77;;;3.53;;
36377;SDS011;22402;42.746;23.606;2023-05-02T06:22:33;4.03;;;3.63;;
36377;SDS011;22402;42.746;23.606;2023-05-02T06:24:59;5.33;;;3.50;;
36377;SDS011;22402;42.746;23.606;2023-05-02T06:27:25;7.17;;;3.90;;
36377;SDS011;22402;42.746;23.606;2023-05-02T06:29:50;4.40;;;3.43;;
36377;SDS011;22402;42.746;23.606;2023-05-02T06:32:16;5.00;;;3.90;;
36377;SDS011;22402;42.746;23.606;2023-05-02T06:34:42;4.37;;;3.60;;
36377;SDS011;22402;42.746;23.606;2023-05-02T06:37:12;4.70;;;3.57;;
36377;SDS011;22402;42.746;23.606;2023-05-02T06:39:37;5.80;;;3.20;;
36377;SDS011;22402;42.746;23.606;2023-05-02T06:42:03;5.60;;;3.70;;
36377;SDS011;22402;42.746;23.606;2023-05-02T06:44:29;3.63;;;3.00;;
36377;SDS011;22402;42.746;23.606;2023-05-02T06:46:54;3.50;;;3.00;;
36377;SDS011;22402;42.746;23.606;2023-05-02T06:49:20;6.97;;;3.00;;
36377;SDS011;22402;42.746;23.606;2023-05-02T06:51:50;5.13;;;2.93;;
36377;SDS011;22402;42.746;23.606;2023-05-02T06:54:15;6.40;;;3.13;;
36377;SDS011;22402;42.746;23.606;2023-05-02T06:56:41;4.73;;;2.80;;
36377;SDS011;22402;42.746;23.606;2023-05-02T06:59:07;5.90;;;3.20;;
36377;SDS011;22402;42.746;23.606;2023-05-02T07:01:33;5.80;;;3.03;;
36377;SDS011;22402;42.746;23.606;2023-05-02T07:03:59;3.20;;;2.50;;
36377;SDS011;22402;42.746;23.606;2023-05-02T07:06:25;5.93;;;3.20;;
36377;SDS011;22402;42.746;23.606;2023-05-02T07:08:51;5.30;;;3.40;;
36377;SDS011;22402;42.746;23.606;2023-05-02T07:11:17;3.97;;;2.60;;
36377;SDS011;22402;42.746;23.606;2023-05-02T07:13:43;4.07;;;2.77;;
36377;SDS011;22402;42.746;23.606;2023-05-02T07:16:08;3.87;;;2.97;;
36377;SDS011;22402;42.746;23.606;2023-05-02T07:18:34;3.30;;;2.67;;
36377;SDS011;22402;42.746;23.606;2023-05-02T07:21:00;3.80;;;2.50;;
36377;SDS011;22402;42.746;23.606;2023-05-02T07:23:25;4.03;;;2.60;;
36377;SDS011;22402;42.746;23.606;2023-05-02T07:25:51;6.10;;;3.00;;
36377;SDS011;22402;42.746;23.606;2023-05-02T07:28:16;5.60;;;2.50;;
36377;SDS011;22402;42.746;23.606;2023-05-02T07:30:42;3.77;;;3.00;;
36377;SDS011;22402;42.746;23.606;2023-05-02T07:33:07;2.80;;;2.10;;
36377;SDS011;22402;42.746;23.606;2023-05-02T07:35:33;3.50;;;2.20;;
36377;SDS011;22402;42.746;23.606;2023-05-02T07:37:58;6.87;;;2.83;;
36377;SDS011;22402;42.746;23.606;2023-05-02T07:40:24;3.10;;;2.70;;
36377;SDS011;22402;42.746;23.606;2023-05-02T07:42:49;10.40;;;2.67;;
36377;SDS011;22402;42.746;23.606;2023-05-02T07:45:15;3.03;;;2.20;;
36377;SDS011;22402;42.746;23.606;2023-05-02T07:47:40;6.33;;;2.90;;
36377;SDS011;22402;42.746;23.606;2023-05-02T07:50:06;3.10;;;2.33;;
36377;SDS011;22402;42.746;23.606;2023-05-02T07:52:33;4.87;;;2.60;;
36377;SDS011;22402;42.746;23.606;2023-05-02T07:54:58;4.40;;;2.47;;
36377;SDS011;22402;42.746;23.606;2023-05-02T07:57:24;3.03;;;2.43;;
36377;SDS011;22402;42.746;23.606;2023-05-02T07:59:50;6.53;;;3.20;;
36377;SDS011;22402;42.746;23.606;2023-05-02T08:02:16;8.90;;;3.97;;
36377;SDS011;22402;42.746;23.606;2023-05-02T08:04:44;6.57;;;3.93;;
36377;SDS011;22402;42.746;23.606;2023-05-02T08:07:11;7.80;;;3.57;;
36377;SDS011;22402;42.746;23.606;2023-05-02T08:09:36;6.47;;;3.77;;
36377;SDS011;22402;42.746;23.606;2023-05-02T08:12:02;6.50;;;3.20;;
36377;SDS011;22402;42.746;23.606;2023-05-02T08:14:27;4.17;;;2.63;;
36377;SDS011;22402;42.746;23.606;2023-05-02T08:16:53;4.13;;;3.40;;
36377;SDS011;22402;42.746;23.606;2023-05-02T08:19:18;4.17;;;2.67;;
36377;SDS011;22402;42.746;23.606;2023-05-02T08:21:43;4.50;;;2.73;;
36377;SDS011;22402;42.746;23.606;2023-05-02T08:24:09;5.60;;;2.60;;
36377;SDS011;22402;42.746;23.606;2023-05-02T08:26:34;3.50;;;2.60;;
36377;SDS011;22402;42.746;23.606;2023-05-02T08:29:00;3.90;;;2.23;;
36377;SDS011;22402;42.746;23.606;2023-05-02T08:31:27;4.40;;;2.10;;
36377;SDS011;22402;42.746;23.606;2023-05-02T08:33:53;4.03;;;1.90;;
36377;SDS011;22402;42.746;23.606;2023-05-02T08:36:18;3.43;;;2.20;;
36377;SDS011;22402;42.746;23.606;2023-05-02T08:38:44;5.23;;;2.20;;
36377;SDS011;22402;42.746;23.606;2023-05-02T08:41:11;3.30;;;1.50;;
36377;SDS011;22402;42.746;23.606;2023-05-02T08:43:38;1.80;;;1.60;;
36377;SDS011;22402;42.746;23.606;2023-05-02T08:46:04;3.17;;;1.90;;
36377;SDS011;22402;42.746;23.606;2023-05-02T08:48:34;4.70;;;2.20;;
36377;SDS011;22402;42.746;23.606;2023-05-02T08:51:07;2.73;;;1.90;;
36377;SDS011;22402;42.746;23.606;2023-05-02T08:53:34;4.07;;;1.83;;
36377;SDS011;22402;42.746;23.606;2023-05-02T08:56:01;5.30;;;2.37;;
36377;SDS011;22402;42.746;23.606;2023-05-02T08:58:27;3.43;;;1.60;;
36377;SDS011;22402;42.746;23.606;2023-05-02T09:00:54;6.23;;;1.73;;
36377;SDS011;22402;42.746;23.606;2023-05-02T09:05:49;6.80;;;1.87;;
36377;SDS011;22402;42.746;23.606;2023-05-02T09:08:25;3.87;;;2.13;;
36377;SDS011;22402;42.746;23.606;2023-05-02T09:10:51;3.40;;;1.90;;
36377;SDS011;22402;42.746;23.606;2023-05-02T09:13:26;4.80;;;1.60;;
36377;SDS011;22402;42.746;23.606;2023-05-02T09:18:32;3.67;;;2.47;;
36377;SDS011;22402;42.746;23.606;2023-05-02T09:21:05;3.73;;;1.97;;
36377;SDS011;22402;42.746;23.606;2023-05-02T09:26:14;6.30;;;1.93;;
36377;SDS011;22402;42.746;23.606;2023-05-02T09:33:44;3.23;;;1.70;;
36377;SDS011;22402;42.746;23.606;2023-05-02T09:36:11;4.80;;;2.17;;
36377;SDS011;22402;42.746;23.606;2023-05-02T09:38:39;4.80;;;2.00;;
36377;SDS011;22402;42.746;23.606;2023-05-02T09:41:05;5.00;;;2.20;;
36377;SDS011;22402;42.746;23.606;2023-05-02T09:43:30;2.50;;;2.13;;
36377;SDS011;22402;42.746;23.606;2023-05-02T09:48:23;5.23;;;2.33;;
36377;SDS011;22402;42.746;23.606;2023-05-02T09:50:50;3.30;;;1.83;;
36377;SDS011;22402;42.746;23.606;2023-05-02T09:53:15;2.30;;;1.90;;
36377;SDS011;22402;42.746;23.606;2023-05-02T09:55:41;3.43;;;1.70;;
36377;SDS011;22402;42.746;23.606;2023-05-02T09:58:06;3.87;;;1.70;;
36377;SDS011;22402;42.746;23.606;2023-05-02T10:00:45;3.67;;;2.10;;
36377;SDS011;22402;42.746;23.606;2023-05-02T10:03:13;2.67;;;2.10;;
36377;SDS011;22402;42.746;23.606;2023-05-02T10:05:40;2.47;;;1.73;;
36377;SDS011;22402;42.746;23.606;2023-05-02T10:08:07;3.63;;;2.27;;
36377;SDS011;22402;42.746;23.606;2023-05-02T10:10:40;3.47;;;1.90;;
36377;SDS011;22402;42.746;23.606;2023-05-02T10:13:11;13.57;;;2.37;;
36377;SDS011;22402;42.746;23.606;2023-05-02T10:15:41;3.43;;;2.00;;
36377;SDS011;22402;42.746;23.606;2023-05-02T10:18:12;5.97;;;2.20;;
36377;SDS011;22402;42.746;23.606;2023-05-02T10:20:43;2.43;;;1.90;;
36377;SDS011;22402;42.746;23.606;2023-05-02T10:23:14;1.93;;;1.73;;
36377;SDS011;22402;42.746;23.606;2023-05-02T10:25:41;1.70;;;1.30;;
36377;SDS011;22402;42.746;23.606;2023-05-02T10:28:07;3.10;;;2.37;;
36377;SDS011;22402;42.746;23.606;2023-05-02T10:30:34;3.53;;;2.10;;
36377;SDS011;22402;42.746;23.606;2023-05-02T10:33:00;8.63;;;1.90;;
36377;SDS011;22402;42.746;23.606;2023-05-02T10:35:27;2.80;;;1.97;;
36377;SDS011;22402;42.746;23.606;2023-05-02T10:37:54;2.17;;;1.90;;
36377;SDS011;22402;42.746;23.606;2023-05-02T10:40:21;2.73;;;2.10;;
36377;SDS011;22402;42.746;23.606;2023-05-02T10:42:47;4.40;;;2.23;;
36377;SDS011;22402;42.746;23.606;2023-05-02T10:45:36;10.07;;;2.13;;
36377;SDS011;22402;42.746;23.606;2023-05-02T10:48:15;2.67;;;1.80;;
36377;SDS011;22402;42.746;23.606;2023-05-02T10:50:57;9.13;;;1.80;;
36377;SDS011;22402;42.746;23.606;2023-05-02T10:53:27;5.33;;;2.10;;
36377;SDS011;22402;42.746;23.606;2023-05-02T10:56:13;7.03;;;1.80;;
36377;SDS011;22402;42.746;23.606;2023-05-02T10:58:45;4.20;;;2.00;;
36377;SDS011;22402;42.746;23.606;2023-05-02T11:04:01;5.87;;;1.87;;
36377;SDS011;22402;42.746;23.606;2023-05-02T11:06:28;3.97;;;1.90;;
36377;SDS011;22402;42.746;23.606;2023-05-02T11:11:45;7.47;;;2.30;;
36377;SDS011;22402;42.746;23.606;2023-05-02T11:19:31;3.10;;;1.73;;
36377;SDS011;22402;42.746;23.606;2023-05-02T11:24:48;3.87;;;1.47;;
36377;SDS011;22402;42.746;23.606;2023-05-02T11:29:59;1.63;;;1.37;;
36377;SDS011;22402;42.746;23.606;2023-05-02T11:35:27;5.70;;;1.30;;
36377;SDS011;22402;42.746;23.606;2023-05-02T11:37:56;2.80;;;1.30;;
36377;SDS011;22402;42.746;23.606;2023-05-02T11:40:27;5.50;;;1.47;;
36377;SDS011;22402;42.746;23.606;2023-05-02T11:42:53;2.50;;;1.10;;
36377;SDS011;22402;42.746;23.606;2023-05-02T11:45:19;2.00;;;1.27;;
36377;SDS011;22402;42.746;23.606;2023-05-02T11:47:46;2.13;;;1.23;;
36377;SDS011;22402;42.746;23.606;2023-05-02T11:50:12;4.37;;;1.30;;
36377;SDS011;22402;42.746;23.606;2023-05-02T11:52:39;5.50;;;1.37;;
36377;SDS011;22402;42.746;23.606;2023-05-02T11:55:09;4.07;;;1.67;;
36377;SDS011;22402;42.746;23.606;2023-05-02T11:57:36;1.40;;;1.13;;
36377;SDS011;22402;42.746;23.606;2023-05-02T12:00:02;2.70;;;1.33;;
36377;SDS011;22402;42.746;23.606;2023-05-02T12:02:38;1.57;;;1.40;;
36377;SDS011;22402;42.746;23.606;2023-05-02T12:05:05;1.97;;;1.53;;
36377;SDS011;22402;42.746;23.606;2023-05-02T12:07:38;2.30;;;1.33;;
36377;SDS011;22402;42.746;23.606;2023-05-02T12:10:04;2.30;;;1.30;;
36377;SDS011;22402;42.746;23.606;2023-05-02T12:12:31;6.37;;;1.40;;
36377;SDS011;22402;42.746;23.606;2023-05-02T12:14:57;2.40;;;1.00;;
36377;SDS011;22402;42.746;23.606;2023-05-02T12:17:27;8.97;;;1.20;;
36377;SDS011;22402;42.746;23.606;2023-05-02T12:19:53;2.30;;;1.20;;
36377;SDS011;22402;42.746;23.606;2023-05-02T12:22:19;2.13;;;1.00;;
36377;SDS011;22402;42.746;23.606;2023-05-02T12:24:44;3.97;;;1.40;;
36377;SDS011;22402;42.746;23.606;2023-05-02T12:27:11;2.67;;;1.27;;
36377;SDS011;22402;42.746;23.606;2023-05-02T12:32:03;1.53;;;1.23;;
36377;SDS011;22402;42.746;23.606;2023-05-02T12:34:35;3.10;;;1.00;;
36377;SDS011;22402;42.746;23.606;2023-05-02T12:37:01;2.73;;;1.30;;
36377;SDS011;22402;42.746;23.606;2023-05-02T12:42:13;1.80;;;1.20;;
36377;SDS011;22402;42.746;23.606;2023-05-02T12:44:41;2.23;;;1.23;;
36377;SDS011;22402;42.746;23.606;2023-05-02T12:47:09;2.37;;;1.30;;
36377;SDS011;22402;42.746;23.606;2023-05-02T12:49:48;2.57;;;1.07;;
36377;SDS011;22402;42.746;23.606;2023-05-02T12:52:21;2.17;;;1.27;;
36377;SDS011;22402;42.746;23.606;2023-05-02T12:55:13;1.03;;;0.97;;
36377;SDS011;22402;42.746;23.606;2023-05-02T12:58:15;1.83;;;1.50;;
36377;SDS011;22402;42.746;23.606;2023-05-02T13:00:41;4.43;;;1.47;;
36377;SDS011;22402;42.746;23.606;2023-05-02T13:03:07;1.23;;;0.97;;
36377;SDS011;22402;42.746;23.606;2023-05-02T13:05:34;3.50;;;1.60;;
36377;SDS011;22402;42.746;23.606;2023-05-02T13:08:00;2.60;;;1.30;;
36377;SDS011;22402;42.746;23.606;2023-05-02T13:10:26;2.20;;;1.00;;
36377;SDS011;22402;42.746;23.606;2023-05-02T13:12:52;1.63;;;1.20;;
36377;SDS011;22402;42.746;23.606;2023-05-02T13:15:18;4.60;;;1.57;;
36377;SDS011;22402;42.746;23.606;2023-05-02T13:17:44;2.87;;;0.90;;
36377;SDS011;22402;42.746;23.606;2023-05-02T13:20:10;3.70;;;1.20;;
36377;SDS011;22402;42.746;23.606;2023-05-02T13:22:36;2.80;;;1.27;;
36377;SDS011;22402;42.746;23.606;2023-05-02T13:25:02;1.50;;;1.13;;
36377;SDS011;22402;42.746;23.606;2023-05-02T13:27:28;2.60;;;1.43;;
36377;SDS011;22402;42.746;23.606;2023-05-02T13:29:53;1.87;;;1.10;;
36377;SDS011;22402;42.746;23.606;2023-05-02T13:32:19;3.00;;;1.20;;
36377;SDS011;22402;42.746;23.606;2023-05-02T13:34:45;2.30;;;0.93;;
36377;SDS011;22402;42.746;23.606;2023-05-02T13:37:11;1.93;;;1.20;;
36377;SDS011;22402;42.746;23.606;2023-05-02T13:39:36;3.87;;;1.30;;
36377;SDS011;22402;42.746;23.606;2023-05-02T13:42:02;1.23;;;0.90;;
36377;SDS011;22402;42.746;23.606;2023-05-02T13:44:28;2.70;;;1.23;;
36377;SDS011;22402;42.746;23.606;2023-05-02T13:46:53;4.00;;;1.60;;
36377;SDS011;22402;42.746;23.606;2023-05-02T13:49:19;1.90;;;1.37;;
36377;SDS011;22402;42.746;23.606;2023-05-02T13:51:44;1.93;;;1.00;;
36377;SDS011;22402;42.746;23.606;2023-05-02T13:54:11;1.80;;;1.13;;
36377;SDS011;22402;42.746;23.606;2023-05-02T13:56:36;4.20;;;1.00;;
36377;SDS011;22402;42.746;23.606;2023-05-02T13:59:01;2.10;;;1.10;;
36377;SDS011;22402;42.746;23.606;2023-05-02T14:01:27;2.03;;;1.20;;
36377;SDS011;22402;42.746;23.606;2023-05-02T14:03:52;1.10;;;0.90;;
36377;SDS011;22402;42.746;23.606;2023-05-02T14:06:18;2.40;;;1.17;;
36377;SDS011;22402;42.746;23.606;2023-05-02T14:08:43;4.70;;;1.27;;
36377;SDS011;22402;42.746;23.606;2023-05-02T14:11:09;2.00;;;1.17;;
36377;SDS011;22402;42.746;23.606;2023-05-02T14:13:35;4.50;;;1.23;;
36377;SDS011;22402;42.746;23.606;2023-05-02T14:16:01;3.10;;;1.00;;
36377;SDS011;22402;42.746;23.606;2023-05-02T14:18:26;1.67;;;1.17;;
36377;SDS011;22402;42.746;23.606;2023-05-02T14:20:52;2.13;;;1.17;;
36377;SDS011;22402;42.746;23.606;2023-05-02T14:23:17;1.57;;;1.10;;
36377;SDS011;22402;42.746;23.606;2023-05-02T14:25:43;2.33;;;1.07;;
36377;SDS011;22402;42.746;23.606;2023-05-02T14:28:08;4.47;;;1.30;;
36377;SDS011;22402;42.746;23.606;2023-05-02T14:30:34;3.50;;;1.30;;
36377;SDS011;22402;42.746;23.606;2023-05-02T15:23:56;1.63;;;1.00;;
36377;SDS011;22402;42.746;23.606;2023-05-02T15:26:22;3.50;;;0.90;;
36377;SDS011;22402;42.746;23.606;2023-05-02T15:28:49;1.80;;;1.00;;
36377;SDS011;22402;42.746;23.606;2023-05-02T15:31:15;1.17;;;1.07;;
36377;SDS011;22402;42.746;23.606;2023-05-02T15:33:41;3.47;;;1.10;;
36377;SDS011;22402;42.746;23.606;2023-05-02T15:36:06;2.03;;;1.43;;
36377;SDS011;22402;42.746;23.606;2023-05-02T15:38:32;3.43;;;1.23;;
36377;SDS011;22402;42.746;23.606;2023-05-02T15:41:03;4.13;;;1.20;;
36377;SDS011;22402;42.746;23.606;2023-05-02T15:43:29;2.20;;;1.30;;
36377;SDS011;22402;42.746;23.606;2023-05-02T15:45:56;1.30;;;1.00;;
36377;SDS011;22402;42.746;23.606;2023-05-02T15:48:25;2.57;;;1.10;;
36377;SDS011;22402;42.746;23.606;2023-05-02T15:50:52;4.13;;;1.20;;
36377;SDS011;22402;42.746;23.606;2023-05-02T15:53:17;2.00;;;1.23;;
36377;SDS011;22402;42.746;23.606;2023-05-02T15:55:43;4.50;;;1.40;;
36377;SDS011;22402;42.746;23.606;2023-05-02T15:58:13;2.40;;;1.07;;
36377;SDS011;22402;42.746;23.606;2023-05-02T16:00:40;1.97;;;1.37;;
36377;SDS011;22402;42.746;23.606;2023-05-02T16:03:06;1.10;;;0.80;;
36377;SDS011;22402;42.746;23.606;2023-05-02T16:05:32;1.60;;;1.10;;
36377;SDS011;22402;42.746;23.606;2023-05-02T16:07:57;1.20;;;1.10;;
36377;SDS011;22402;42.746;23.606;2023-05-02T16:10:23;2.80;;;1.30;;
36377;SDS011;22402;42.746;23.606;2023-05-02T16:12:48;2.70;;;1.10;;
36377;SDS011;22402;42.746;23.606;2023-05-02T16:15:14;2.63;;;1.00;;
36377;SDS011;22402;42.746;23.606;2023-05-02T16:17:39;1.83;;;1.30;;
36377;SDS011;22402;42.746;23.606;2023-05-02T16:20:07;2.03;;;1.00;;
36377;SDS011;22402;42.746;23.606;2023-05-02T16:22:34;4.03;;;1.93;;
36377;SDS011;22402;42.746;23.606;2023-05-02T16:24:59;3.73;;;1.57;;